Portada
METAR-TAF:

METAR-TAF

Aeroports :

Mount Airy/Surry County Airport

Mount Airy, Carolina del Nord, Estats Units d'Amèrica

latitud: 36-27-35N, longitud: 080-33-11W, altitud: 380 m

Observació

L'informe es va fer fa 29 minuts, a les 00:20 UTC
Vent calma
Temperatura 25°C
Humitat 57%
Pressió 1015 hPa
Visibilitat: 16.1 km
Cel clar

METAR: KMWK 210020Z AUTO 00000KT 10SM CLR 25/16 A2996 RMK AO2 T02520156

Hora: 20:49 (00:49 UTC)


TAF: manca

Observacions i pronòstics meteorològics de més de 4000 aeroports (METAR i TAF).

Les estacions disponibles són els punts grocs i vermells al mapa.

Posi el ratolí al punt desitjat per veure el nom de l'estació.

Feu clic per veure les observacions i els pronòstics meteorològics.

Per canviar el mapa: feu clic els botons verds amb una creu de color negre per apropar; al botó verd amb un guió per allunyar la imatge; o en les fletxes verdes per a mapes adjacents.


METAR-TAF: